createdAt,value
2019-04-11T00:01:38.352Z,6.67
2019-04-11T00:03:58.244Z,7.78
2019-04-11T00:06:27.686Z,6.33
2019-04-11T00:08:56.534Z,7.50
2019-04-11T00:11:26.019Z,4.67
2019-04-11T00:13:55.705Z,7.05
2019-04-11T00:16:25.461Z,6.47
2019-04-11T00:18:54.738Z,5.55
2019-04-11T00:21:24.499Z,4.65
2019-04-11T00:23:54.420Z,6.47
2019-04-11T00:26:24.423Z,6.55
2019-04-11T00:28:54.136Z,4.95
2019-04-11T00:31:23.053Z,5.35
2019-04-11T00:33:51.721Z,5.05
2019-04-11T00:36:20.328Z,6.35
2019-04-11T00:38:49.952Z,6.03
2019-04-11T00:41:18.561Z,4.95
2019-04-11T00:43:47.235Z,5.17
2019-04-11T00:46:16.249Z,6.28
2019-04-11T00:48:46.122Z,5.72
2019-04-11T00:51:17.121Z,9.15
2019-04-11T00:53:46.540Z,6.15
2019-04-11T00:56:15.785Z,6.78
2019-04-11T00:58:45.627Z,5.72
2019-04-11T01:01:15.571Z,4.62
2019-04-11T01:03:45.328Z,7.20
2019-04-11T01:06:14.141Z,6.80
2019-04-11T01:08:43.978Z,7.33
2019-04-11T01:11:12.677Z,7.47
2019-04-11T01:13:47.721Z,6.45
2019-04-11T01:16:40.859Z,9.25
2019-04-11T01:19:10.752Z,5.42
2019-04-11T01:21:40.406Z,4.72
2019-04-11T01:24:09.329Z,6.15
2019-04-11T01:26:38.203Z,6.53
2019-04-11T01:29:07.175Z,6.65
2019-04-11T01:31:37.781Z,6.35
2019-04-11T01:34:06.574Z,5.22
2019-04-11T01:36:37.858Z,4.90
2019-04-11T01:39:19.271Z,4.87
2019-04-11T01:41:48.847Z,5.75
2019-04-11T01:44:18.617Z,5.55
2019-04-11T01:46:48.564Z,4.10
2019-04-11T01:49:20.187Z,5.90
2019-04-11T01:51:49.732Z,5.92
2019-04-11T01:54:19.554Z,5.03
2019-04-11T01:56:48.148Z,4.75
2019-04-11T01:59:17.438Z,3.92
2019-04-11T02:02:03.414Z,4.58
2019-04-11T02:04:40.437Z,3.58
2019-04-11T02:07:10.123Z,4.10
2019-04-11T02:09:39.991Z,4.53
2019-04-11T02:12:08.675Z,4.47
2019-04-11T02:14:37.195Z,4.65
2019-04-11T02:17:06.422Z,3.72
2019-04-11T02:19:36.303Z,3.87
2019-04-11T02:22:26.405Z,5.17
2019-04-11T02:25:00.597Z,2.98
2019-04-11T02:27:30.757Z,5.00
2019-04-11T02:30:00.965Z,3.42
2019-04-11T02:32:31.893Z,3.40
2019-04-11T02:35:02.472Z,3.27
2019-04-11T02:37:31.680Z,3.72
2019-04-11T02:40:03.088Z,3.33
2019-04-11T02:42:32.885Z,5.05
2019-04-11T02:45:18.102Z,3.15
2019-04-11T02:47:36.813Z,3.83
2019-04-11T02:50:03.858Z,4.10
2019-04-11T02:52:35.424Z,3.45
2019-04-11T02:55:05.765Z,3.10
2019-04-11T02:57:36.161Z,3.08
2019-04-11T03:00:06.482Z,3.60
2019-04-11T03:02:37.049Z,3.72
2019-04-11T03:05:07.029Z,3.02
2019-04-11T03:07:36.137Z,3.62
2019-04-11T03:10:07.099Z,2.90
2019-04-11T03:12:36.138Z,2.85
2019-04-11T03:15:25.760Z,3.50
2019-04-11T03:17:42.109Z,2.20
2019-04-11T03:20:15.524Z,3.65
2019-04-11T03:22:38.425Z,2.47
2019-04-11T03:25:08.491Z,3.70
2019-04-11T03:27:37.788Z,4.08
2019-04-11T03:30:12.088Z,2.33
2019-04-11T03:33:29.958Z,2.58
2019-04-11T03:36:00.015Z,3.08
2019-04-11T03:38:01.204Z,4.60
2019-04-11T03:40:27.045Z,3.10
2019-04-11T03:42:54.310Z,3.33
2019-04-11T03:45:33.234Z,2.80
2019-04-11T03:47:59.110Z,3.00
2019-04-11T03:50:16.524Z,2.58
2019-04-11T03:52:43.037Z,4.50
2019-04-11T03:55:13.294Z,2.80
2019-04-11T03:57:42.228Z,3.75
2019-04-11T04:00:14.255Z,2.52
2019-04-11T04:02:42.483Z,2.92
2019-04-11T04:05:13.147Z,3.90
2019-04-11T04:07:44.484Z,4.00
2019-04-11T04:10:13.969Z,2.75
2019-04-11T04:12:45.382Z,3.12
2019-04-11T04:15:48.295Z,2.98
2019-04-11T04:18:16.421Z,2.95
2019-04-11T04:21:04.234Z,4.35
2019-04-11T04:23:37.843Z,4.25
2019-04-11T04:26:08.481Z,3.65
2019-04-11T04:28:38.059Z,2.62
2019-04-11T04:31:09.125Z,4.92
2019-04-11T04:33:39.501Z,3.20
2019-04-11T04:36:10.368Z,3.90
2019-04-11T04:38:39.802Z,3.37
2019-04-11T04:41:19.896Z,2.75
2019-04-11T04:43:41.149Z,5.17
2019-04-11T04:46:26.268Z,3.25
2019-04-11T04:48:42.535Z,4.47
2019-04-11T04:51:12.041Z,3.72
2019-04-11T04:53:42.933Z,2.65
2019-04-11T04:56:13.367Z,5.03
2019-04-11T04:58:44.406Z,5.78
2019-04-11T05:01:14.992Z,3.77
2019-04-11T05:03:44.699Z,3.77
2019-04-11T05:06:14.135Z,4.12
2019-04-11T05:08:43.114Z,3.33
2019-04-11T05:11:11.827Z,6.12
2019-04-11T05:13:41.245Z,5.72
2019-04-11T05:16:17.168Z,4.62
2019-04-11T05:18:41.999Z,4.97
2019-04-11T05:21:10.772Z,7.15
2019-04-11T05:23:39.573Z,4.97
2019-04-11T05:26:08.889Z,5.83
2019-04-11T05:28:37.557Z,6.40
2019-04-11T05:31:06.176Z,5.05
2019-04-11T05:33:35.015Z,3.85
2019-04-11T05:36:04.002Z,5.08
2019-04-11T05:38:32.860Z,5.45
2019-04-11T05:41:04.265Z,5.65
2019-04-11T05:43:37.347Z,4.92
2019-04-11T05:46:05.753Z,5.12
2019-04-11T05:49:05.425Z,4.62
2019-04-11T05:51:39.945Z,4.87
2019-04-11T05:54:07.549Z,5.80
2019-04-11T05:56:35.663Z,6.70
2019-04-11T05:59:15.271Z,4.47
2019-04-11T06:01:50.723Z,4.10
2019-04-11T06:04:28.466Z,4.97
2019-04-11T06:07:13.913Z,4.15
2019-04-11T06:09:44.775Z,4.50
2019-04-11T06:12:22.477Z,4.15
2019-04-11T06:15:01.974Z,4.87
2019-04-11T06:17:30.829Z,4.05
2019-04-11T06:20:17.918Z,4.22
2019-04-11T06:23:06.567Z,6.28
2019-04-11T06:25:49.383Z,6.03
2019-04-11T06:28:24.324Z,5.53
2019-04-11T06:31:10.201Z,7.35
2019-04-11T06:33:42.856Z,8.15
2019-04-11T06:36:28.141Z,7.60
2019-04-11T06:39:19.151Z,7.25
2019-04-11T06:42:24.453Z,6.33
2019-04-11T06:45:08.831Z,6.85
2019-04-11T06:47:45.096Z,8.75
2019-04-11T06:50:19.440Z,7.05
2019-04-11T06:52:48.800Z,7.47
2019-04-11T06:55:37.036Z,8.70
2019-04-11T06:58:15.676Z,7.87
2019-04-11T07:00:47.711Z,8.88
2019-04-11T07:03:23.127Z,8.83
2019-04-11T07:05:49.722Z,6.58
2019-04-11T07:08:20.276Z,6.62
2019-04-11T07:10:56.366Z,7.60
2019-04-11T07:13:32.740Z,7.55
2019-04-11T07:16:02.607Z,7.08
2019-04-11T07:18:57.031Z,9.65
2019-04-11T07:21:31.057Z,6.72
2019-04-11T07:24:18.182Z,5.42
2019-04-11T07:26:52.171Z,6.42
2019-04-11T07:29:44.286Z,9.80
2019-04-11T07:32:17.976Z,12.50
2019-04-11T07:35:19.316Z,6.25
2019-04-11T07:37:51.084Z,7.12
2019-04-11T07:40:39.192Z,8.45
2019-04-11T07:43:18.509Z,9.40
2019-04-11T07:46:24.993Z,6.70
2019-04-11T07:49:01.492Z,8.80
2019-04-11T07:51:39.084Z,7.37
2019-04-11T07:54:10.043Z,7.65
2019-04-11T07:57:04.105Z,8.10
2019-04-11T07:59:48.985Z,6.00
2019-04-11T08:02:43.752Z,7.42
2019-04-11T08:05:50.238Z,6.62
2019-04-11T08:08:30.309Z,7.40
2019-04-11T08:11:11.884Z,9.38
2019-04-11T08:14:02.585Z,8.78
2019-04-11T08:16:51.236Z,6.10
2019-04-11T08:19:38.544Z,7.78
2019-04-11T08:22:29.062Z,5.90
2019-04-11T08:25:05.007Z,4.20
2019-04-11T08:27:50.075Z,4.70
2019-04-11T08:30:10.732Z,5.55
2019-04-11T08:32:46.402Z,4.25
2019-04-11T08:35:30.360Z,6.35
2019-04-11T08:38:09.936Z,5.20
2019-04-11T08:40:45.181Z,3.58
2019-04-11T08:43:17.507Z,3.33
2019-04-11T08:45:50.644Z,4.47
2019-04-11T08:48:19.470Z,4.15
2019-04-11T08:50:52.543Z,2.40
2019-04-11T08:53:55.205Z,2.77
2019-04-11T08:56:25.029Z,3.52
2019-04-11T08:59:24.984Z,2.98
2019-04-11T09:01:53.966Z,4.42
2019-04-11T09:04:50.212Z,2.90
2019-04-11T09:07:21.205Z,4.87
2019-04-11T09:10:07.722Z,2.37
2019-04-11T09:12:38.431Z,4.30
2019-04-11T09:15:26.647Z,3.17
2019-04-11T09:18:05.723Z,3.35
2019-04-11T09:20:51.766Z,2.30
2019-04-11T09:23:22.472Z,3.60
2019-04-11T09:26:10.254Z,4.10
2019-04-11T09:28:44.169Z,4.20
2019-04-11T09:31:27.631Z,3.58
2019-04-11T09:34:15.400Z,3.02
2019-04-11T09:36:51.907Z,3.70
2019-04-11T09:39:55.217Z,6.10
2019-04-11T09:43:01.766Z,2.33
2019-04-11T09:45:50.876Z,2.30
2019-04-11T09:48:42.624Z,2.35
2019-04-11T09:51:33.885Z,4.00
2019-04-11T09:54:10.262Z,2.58
2019-04-11T09:57:00.229Z,3.15
2019-04-11T09:59:39.324Z,2.72
2019-04-11T10:02:42.268Z,2.25
2019-04-11T10:05:12.150Z,2.90
2019-04-11T10:08:12.740Z,2.25
2019-04-11T10:10:59.662Z,2.35
2019-04-11T10:13:38.902Z,2.52
2019-04-11T10:16:42.292Z,5.25
2019-04-11T10:19:13.963Z,4.30
2019-04-11T10:21:47.892Z,2.65
2019-04-11T10:24:32.712Z,2.42
2019-04-11T10:27:08.689Z,2.30
2019-04-11T10:29:55.069Z,2.65
2019-04-11T10:32:27.486Z,2.70
2019-04-11T10:35:17.614Z,2.87
2019-04-11T10:37:45.637Z,4.05
2019-04-11T10:40:32.261Z,3.98
2019-04-11T10:43:01.465Z,4.72
2019-04-11T10:45:49.018Z,2.58
2019-04-11T10:48:19.977Z,4.53
2019-04-11T10:51:08.821Z,4.28
2019-04-11T10:53:37.672Z,4.25
2019-04-11T10:56:31.074Z,4.22
2019-04-11T10:59:01.649Z,2.90
2019-04-11T11:01:48.518Z,4.08
2019-04-11T11:04:23.442Z,2.85
2019-04-11T11:06:55.890Z,2.30
2019-04-11T11:09:39.258Z,2.70
2019-04-11T11:12:25.546Z,2.80
2019-04-11T11:15:07.769Z,3.83
2019-04-11T11:18:35.158Z,3.98
2019-04-11T11:20:58.512Z,2.25
2019-04-11T11:23:43.104Z,3.00
2019-04-11T11:26:22.888Z,2.77
2019-04-11T11:29:13.616Z,5.78
2019-04-11T11:31:42.751Z,2.62
2019-04-11T11:34:20.331Z,2.30
2019-04-11T11:37:18.857Z,3.52
2019-04-11T11:40:21.858Z,2.58
2019-04-11T11:43:16.734Z,3.92
2019-04-11T11:46:10.616Z,3.87
2019-04-11T11:48:47.951Z,2.40
2019-04-11T11:51:25.662Z,4.10
2019-04-11T11:54:00.703Z,2.45
2019-04-11T11:56:29.759Z,1.92
2019-04-11T11:59:18.149Z,1.62
2019-04-11T12:01:54.113Z,2.25
2019-04-11T12:04:40.543Z,6.35
2019-04-11T12:07:10.613Z,2.95
2019-04-11T12:10:02.756Z,6.05
2019-04-11T12:12:48.437Z,3.92
2019-04-11T12:15:35.094Z,2.55
2019-04-11T12:18:13.035Z,5.75
2019-04-11T12:20:46.791Z,6.40
2019-04-11T12:23:48.505Z,2.45
2019-04-11T12:26:13.406Z,1.62
2019-04-11T12:29:12.417Z,2.58
2019-04-11T12:31:44.292Z,3.60
2019-04-11T12:34:30.514Z,2.47
2019-04-11T12:37:00.119Z,2.30
2019-04-11T12:39:59.881Z,2.75
2019-04-11T12:42:31.663Z,5.45
2019-04-11T12:45:17.887Z,2.27
2019-04-11T12:47:52.592Z,2.10
2019-04-11T12:50:55.280Z,3.37
2019-04-11T12:53:26.068Z,3.33
2019-04-11T12:56:32.154Z,3.52
2019-04-11T12:59:03.635Z,2.12
2019-04-11T13:01:57.357Z,4.37
2019-04-11T13:04:29.427Z,2.15
2019-04-11T13:07:35.375Z,4.72
2019-04-11T13:10:24.335Z,3.92
2019-04-11T13:13:11.805Z,2.77
2019-04-11T13:15:54.632Z,3.83
2019-04-11T13:18:45.519Z,1.70
2019-04-11T13:21:36.109Z,2.52
2019-04-11T13:24:39.052Z,2.72
2019-04-11T13:27:16.127Z,2.47
2019-04-11T13:30:03.802Z,3.30
2019-04-11T13:32:55.777Z,1.62
2019-04-11T13:35:52.264Z,2.95
2019-04-11T13:38:24.034Z,2.83
2019-04-11T13:41:20.925Z,3.02
2019-04-11T13:44:15.811Z,2.22
2019-04-11T13:47:16.051Z,3.95
2019-04-11T13:50:16.237Z,2.87
2019-04-11T13:53:11.001Z,3.92
2019-04-11T13:55:42.226Z,3.67
2019-04-11T13:58:35.818Z,2.98
2019-04-11T14:01:10.584Z,2.45
2019-04-11T14:03:58.236Z,2.47
2019-04-11T14:06:37.243Z,2.37
2019-04-11T14:09:38.488Z,2.37
2019-04-11T14:12:10.412Z,4.42
2019-04-11T14:14:48.491Z,2.02
2019-04-11T14:17:44.978Z,2.80
2019-04-11T14:20:34.581Z,2.33
2019-04-11T14:23:22.222Z,3.30
2019-04-11T14:26:01.458Z,3.15
2019-04-11T14:28:33.861Z,5.35
2019-04-11T14:31:24.544Z,4.15
2019-04-11T14:33:57.495Z,4.60
2019-04-11T14:36:43.645Z,3.60
2019-04-11T14:39:14.210Z,2.70
2019-04-11T14:42:05.183Z,2.72
2019-04-11T14:44:34.822Z,3.35
2019-04-11T14:47:28.526Z,3.25
2019-04-11T14:50:01.480Z,2.77
2019-04-11T14:52:50.244Z,2.87
2019-04-11T14:55:20.494Z,2.58
2019-04-11T14:58:26.396Z,3.12
2019-04-11T15:00:54.983Z,2.10
2019-04-11T15:03:33.859Z,2.58
2019-04-11T15:06:21.518Z,2.58
2019-04-11T15:09:05.121Z,2.33
2019-04-11T15:11:56.287Z,3.05
2019-04-11T15:14:53.181Z,2.87
2019-04-11T15:17:33.544Z,2.20
2019-04-11T15:20:33.838Z,1.65
2019-04-11T15:23:22.028Z,2.10
2019-04-11T15:26:09.674Z,2.25
2019-04-11T15:28:52.547Z,2.15
2019-04-11T15:31:39.747Z,2.25
2019-04-11T15:34:42.920Z,2.58
2019-04-11T15:37:33.371Z,2.27
2019-04-11T15:40:12.877Z,2.25
2019-04-11T15:43:06.425Z,3.42
2019-04-11T15:45:47.305Z,1.70
2019-04-11T15:48:33.901Z,2.20
2019-04-11T15:51:18.345Z,2.30
2019-04-11T15:54:08.054Z,2.20
2019-04-11T15:56:41.737Z,2.30
2019-04-11T15:59:24.332Z,2.17
2019-04-11T16:02:12.039Z,2.02
2019-04-11T16:05:02.070Z,1.92
2019-04-11T16:07:52.102Z,2.22
2019-04-11T16:10:21.226Z,1.87
2019-04-11T16:12:56.433Z,1.50
2019-04-11T16:15:25.555Z,4.50
2019-04-11T16:18:18.958Z,4.00
2019-04-11T16:20:51.463Z,2.58
2019-04-11T16:23:48.337Z,2.62
2019-04-11T16:26:21.472Z,2.27
2019-04-11T16:29:24.288Z,3.20
2019-04-11T16:31:53.836Z,2.22
2019-04-11T16:34:54.466Z,2.40
2019-04-11T16:37:21.009Z,2.42
2019-04-11T16:40:11.545Z,2.15
2019-04-11T16:42:45.770Z,1.87
2019-04-11T16:45:39.467Z,2.27
2019-04-11T16:48:08.097Z,2.47
2019-04-11T16:50:36.716Z,2.00
2019-04-11T16:53:05.371Z,2.62
2019-04-11T16:55:36.595Z,3.75
2019-04-11T16:58:04.368Z,3.70
2019-04-11T17:00:32.974Z,3.62
2019-04-11T17:03:01.548Z,3.27
2019-04-11T17:05:30.140Z,2.40
2019-04-11T17:08:32.869Z,2.60
2019-04-11T17:11:04.403Z,4.20
2019-04-11T17:13:33.055Z,3.55
2019-04-11T17:16:02.109Z,1.60
2019-04-11T17:18:34.103Z,2.45
2019-04-11T17:21:00.990Z,2.52
2019-04-11T17:23:29.681Z,2.37
2019-04-11T17:25:58.352Z,3.27
2019-04-11T17:28:27.090Z,2.62
2019-04-11T17:30:56.001Z,3.40
2019-04-11T17:33:27.794Z,3.25
2019-04-11T17:35:55.044Z,4.95
2019-04-11T17:38:23.635Z,4.60
2019-04-11T17:40:52.343Z,3.92
2019-04-11T17:43:20.888Z,4.10
2019-04-11T17:45:49.485Z,7.62
2019-04-11T17:48:18.209Z,3.37
2019-04-11T17:50:46.797Z,4.90
2019-04-11T17:53:15.345Z,5.75
2019-04-11T17:55:44.078Z,4.33
2019-04-11T17:58:12.781Z,4.45
2019-04-11T18:00:44.785Z,4.17
2019-04-11T18:03:13.315Z,4.70
2019-04-11T18:05:41.920Z,3.60
2019-04-11T18:08:10.568Z,3.72
2019-04-11T18:10:39.621Z,3.85
2019-04-11T18:13:08.331Z,3.30
2019-04-11T18:15:36.979Z,3.08
2019-04-11T18:18:06.069Z,2.85
2019-04-11T18:20:37.057Z,3.20
2019-04-11T18:23:05.131Z,6.87
2019-04-11T18:25:33.743Z,3.22
2019-04-11T18:28:02.378Z,4.78
2019-04-11T18:30:31.100Z,3.90
2019-04-11T18:32:59.811Z,2.95
2019-04-11T18:35:31.753Z,5.28
2019-04-11T18:38:01.799Z,4.37
2019-04-11T18:40:29.184Z,5.20
2019-04-11T18:42:58.203Z,3.52
2019-04-11T18:45:26.820Z,3.47
2019-04-11T18:47:56.647Z,5.22
2019-04-11T18:50:25.252Z,4.10
2019-04-11T18:52:53.890Z,3.20
2019-04-11T18:55:22.804Z,3.17
2019-04-11T18:57:51.489Z,4.67
2019-04-11T19:00:21.037Z,3.98
2019-04-11T19:02:49.783Z,3.95
2019-04-11T19:05:28.145Z,2.62
2019-04-11T19:07:49.075Z,2.42
2019-04-11T19:10:17.717Z,4.55
2019-04-11T19:12:47.020Z,6.53
2019-04-11T19:15:16.869Z,4.15
2019-04-11T19:17:46.842Z,3.87
2019-04-11T19:20:19.125Z,3.00
2019-04-11T19:22:47.296Z,4.92
2019-04-11T19:25:15.960Z,5.15
2019-04-11T19:27:44.582Z,3.25
2019-04-11T19:30:13.473Z,6.37
2019-04-11T19:32:42.088Z,3.50
2019-04-11T19:35:10.750Z,6.12
2019-04-11T19:37:41.724Z,2.85
2019-04-11T19:40:10.277Z,3.92
2019-04-11T19:42:41.923Z,3.98
2019-04-11T19:45:10.675Z,3.92
2019-04-11T19:47:39.272Z,2.98
2019-04-11T19:50:09.140Z,4.42
2019-04-11T19:52:45.306Z,3.65
2019-04-11T19:55:19.034Z,5.30
2019-04-11T19:57:47.730Z,3.98
2019-04-11T20:00:16.354Z,2.77
2019-04-11T20:02:45.069Z,4.60
2019-04-11T20:05:16.467Z,3.72
2019-04-11T20:07:45.064Z,3.92
2019-04-11T20:10:13.779Z,3.92
2019-04-11T20:12:42.387Z,3.95
2019-04-11T20:15:10.996Z,4.25
2019-04-11T20:20:29.032Z,4.22
2019-04-11T20:23:00.495Z,3.50
2019-04-11T20:25:29.158Z,4.22
2019-04-11T20:27:57.936Z,3.67
2019-04-11T20:30:26.658Z,3.98
2019-04-11T20:32:55.329Z,3.85
2019-04-11T20:35:29.234Z,4.20
2019-04-11T20:37:54.460Z,4.87
2019-04-11T20:40:23.179Z,5.62
2019-04-11T20:42:54.034Z,3.98
2019-04-11T20:45:22.688Z,3.55
2019-04-11T20:47:51.349Z,5.58
2019-04-11T20:50:20.211Z,5.58
2019-04-11T20:52:48.918Z,4.28
2019-04-11T20:55:17.677Z,3.35
2019-04-11T20:57:46.335Z,3.17
2019-04-11T21:00:15.400Z,3.62
2019-04-11T21:02:44.069Z,3.27
2019-04-11T21:05:12.789Z,3.75
2019-04-11T21:07:41.434Z,4.95
2019-04-11T21:10:10.081Z,3.77
2019-04-11T21:12:38.788Z,4.33
2019-04-11T21:15:07.507Z,3.27
2019-04-11T21:17:36.162Z,3.72
2019-04-11T21:20:05.174Z,3.40
2019-04-11T21:22:33.849Z,4.10
2019-04-11T21:25:02.570Z,3.62
2019-04-11T21:27:31.228Z,3.60
2019-04-11T21:30:00.538Z,3.27
2019-04-11T21:32:31.847Z,3.60
2019-04-11T21:35:02.337Z,3.92
2019-04-11T21:37:31.038Z,5.10
2019-04-11T21:39:59.669Z,3.72
2019-04-11T21:42:28.327Z,4.08
2019-04-11T21:44:56.935Z,4.60
2019-04-11T21:47:25.743Z,3.42
2019-04-11T21:49:54.430Z,3.77
2019-04-11T21:52:23.137Z,4.40
2019-04-11T21:54:52.042Z,3.72
2019-04-11T21:57:20.766Z,4.22
2019-04-11T21:59:51.643Z,5.33
2019-04-11T22:02:24.132Z,3.35
2019-04-11T22:04:52.023Z,3.30
2019-04-11T22:07:20.684Z,4.78
2019-04-11T22:09:49.313Z,4.05
2019-04-11T22:12:17.954Z,3.92
2019-04-11T22:14:46.616Z,4.65
2019-04-11T22:17:16.092Z,3.50
2019-04-11T22:19:45.813Z,5.45
2019-04-11T22:22:15.151Z,3.42
2019-04-11T22:24:43.774Z,3.45
2019-04-11T22:27:12.407Z,4.15
2019-04-11T22:29:43.924Z,3.83
2019-04-11T22:32:12.597Z,4.10
2019-04-11T22:34:45.808Z,4.72
2019-04-11T22:37:14.577Z,4.60
2019-04-11T22:39:43.287Z,5.05
2019-04-11T22:42:11.915Z,4.28
2019-04-11T22:44:40.446Z,3.67
2019-04-11T22:47:09.106Z,3.83
2019-04-11T22:49:39.388Z,4.28
2019-04-11T22:52:08.096Z,4.08
2019-04-11T22:54:38.152Z,4.67
2019-04-11T22:57:06.998Z,3.40
2019-04-11T22:59:35.636Z,3.65
2019-04-11T23:02:12.256Z,6.50
2019-04-11T23:04:46.892Z,5.67
2019-04-11T23:07:15.026Z,4.15
2019-04-11T23:09:43.877Z,4.85
2019-04-11T23:12:15.253Z,3.87
2019-04-11T23:14:45.730Z,3.80
2019-04-11T23:17:14.945Z,3.40
2019-04-11T23:19:44.124Z,4.28
2019-04-11T23:22:15.030Z,4.60
2019-04-11T23:24:44.015Z,3.35
2019-04-11T23:27:12.654Z,3.85
2019-04-11T23:29:41.270Z,3.77
2019-04-11T23:32:10.022Z,3.95
2019-04-11T23:34:38.662Z,4.67
2019-04-11T23:37:07.321Z,4.05
2019-04-11T23:39:35.910Z,3.08
2019-04-11T23:42:04.531Z,3.75
2019-04-11T23:44:33.214Z,4.83
2019-04-11T23:47:01.857Z,6.50
2019-04-11T23:49:30.490Z,4.28
2019-04-11T23:51:59.117Z,5.00
2019-04-11T23:54:29.267Z,4.25
2019-04-11T23:57:00.750Z,5.53
2019-04-11T23:59:32.147Z,3.90
